createdAt,value
2023-01-21T00:01:29.226Z,99128.50
2023-01-21T00:05:41.486Z,99109.19
2023-01-21T00:09:53.804Z,99133.38
2023-01-21T00:14:06.088Z,99129.84
2023-01-21T00:18:18.448Z,99131.44
2023-01-21T00:22:31.806Z,99114.72
2023-01-21T00:26:44.430Z,99112.97
2023-01-21T00:31:01.270Z,99121.31
2023-01-21T00:35:13.882Z,99147.28
2023-01-21T00:39:26.273Z,99122.53
2023-01-21T00:43:39.796Z,99152.47
2023-01-21T00:47:52.191Z,99143.69
2023-01-21T00:52:04.763Z,99191.19
2023-01-21T00:56:17.111Z,99198.59
2023-01-21T01:00:30.038Z,99209.41
2023-01-21T01:04:42.840Z,99211.22
2023-01-21T01:09:00.457Z,99226.94
2023-01-21T01:13:13.974Z,99226.31
2023-01-21T01:17:27.976Z,99223.69
2023-01-21T01:21:47.632Z,99181.50
2023-01-21T01:26:11.245Z,99099.66
2023-01-21T01:30:23.609Z,99102.97
2023-01-21T01:34:35.956Z,99116.41
2023-01-21T01:38:48.318Z,99117.13
2023-01-21T01:43:00.734Z,99102.88
2023-01-21T01:47:13.895Z,99111.16
2023-01-21T01:51:44.152Z,99098.94
2023-01-21T01:55:57.388Z,99073.34
2023-01-21T02:00:12.738Z,99074.16
2023-01-21T02:04:31.222Z,99082.63
2023-01-21T02:08:45.956Z,99082.13
2023-01-21T02:12:58.551Z,99094.50
2023-01-21T02:17:23.309Z,99096.13
2023-01-21T02:21:48.607Z,99073.44
2023-01-21T02:26:33.290Z,99116.66
2023-01-21T02:31:09.832Z,99123.13
2023-01-21T02:35:36.047Z,99068.97
2023-01-21T02:39:59.839Z,99093.25
2023-01-21T02:44:41.283Z,99085.06
2023-01-21T02:49:32.673Z,99097.25
2023-01-21T02:53:49.348Z,99079.63
2023-01-21T02:58:10.821Z,99082.16
2023-01-21T03:02:42.295Z,99073.44
2023-01-21T03:07:20.898Z,99068.91
2023-01-21T03:11:35.086Z,99062.44
2023-01-21T03:16:14.974Z,99069.50
2023-01-21T03:20:34.452Z,99087.09
2023-01-21T03:24:51.424Z,99085.56
2023-01-21T03:29:11.268Z,99076.13
2023-01-21T03:33:24.848Z,99088.41
2023-01-21T03:37:58.839Z,99102.63
2023-01-21T03:42:11.663Z,99083.91
2023-01-21T03:46:23.977Z,99084.88
2023-01-21T03:50:44.969Z,99093.25
2023-01-21T03:54:58.478Z,99071.31
2023-01-21T03:59:11.162Z,99076.69
2023-01-21T04:03:25.900Z,99090.84
2023-01-21T04:07:38.299Z,99099.56
2023-01-21T04:11:50.679Z,99103.19
2023-01-21T04:16:03.369Z,99127.91
2023-01-21T04:20:17.795Z,99109.56
2023-01-21T04:24:33.752Z,99118.31
2023-01-21T04:28:48.133Z,99122.72
2023-01-21T04:33:01.744Z,99119.97
2023-01-21T04:37:15.156Z,99129.06
2023-01-21T04:41:27.613Z,99115.16
2023-01-21T04:45:40.013Z,99110.84
2023-01-21T04:49:53.049Z,99109.22
2023-01-21T04:54:05.419Z,99120.50
2023-01-21T04:58:17.930Z,99119.94
2023-01-21T05:02:30.254Z,99146.06
2023-01-21T05:06:42.607Z,99132.31
2023-01-21T05:10:55.004Z,99143.88
2023-01-21T05:15:07.802Z,99136.75
2023-01-21T05:19:20.208Z,99129.63
2023-01-21T05:23:32.838Z,99156.34
2023-01-21T05:27:51.806Z,99172.03
2023-01-21T05:32:04.246Z,99183.63
2023-01-21T05:36:16.831Z,99189.47
2023-01-21T05:40:29.369Z,99165.97
2023-01-21T05:44:41.604Z,99164.28
2023-01-21T05:48:53.981Z,99169.38
2023-01-21T05:53:06.337Z,99192.41
2023-01-21T05:57:18.699Z,99192.88
2023-01-21T06:01:31.065Z,99194.03
2023-01-21T06:05:43.665Z,99191.00
2023-01-21T06:09:56.119Z,99211.34
2023-01-21T06:14:08.541Z,99239.50
2023-01-21T06:18:21.218Z,99242.31
2023-01-21T06:22:34.289Z,99255.50
2023-01-21T06:26:51.666Z,99275.00
2023-01-21T06:31:04.313Z,99268.84
2023-01-21T06:35:17.622Z,99272.22
2023-01-21T06:39:30.162Z,99280.13
2023-01-21T06:43:42.632Z,99290.66
2023-01-21T06:47:55.149Z,99278.38
2023-01-21T06:52:07.604Z,99278.22
2023-01-21T06:56:20.384Z,99287.00
2023-01-21T07:00:32.751Z,99310.84
2023-01-21T07:04:45.662Z,99312.75
2023-01-21T07:08:58.193Z,99308.34
2023-01-21T07:13:10.576Z,99307.44
2023-01-21T07:17:23.411Z,99312.63
2023-01-21T07:21:35.812Z,99326.38
2023-01-21T07:25:48.330Z,99333.94
2023-01-21T07:30:01.021Z,99339.53
2023-01-21T07:34:13.472Z,99356.00
2023-01-21T07:38:25.922Z,99346.66
2023-01-21T07:42:38.253Z,99344.72
2023-01-21T07:46:53.136Z,99336.84
2023-01-21T07:51:06.923Z,99347.34
2023-01-21T07:55:19.677Z,99370.25
2023-01-21T07:59:32.361Z,99382.03
2023-01-21T08:03:44.884Z,99414.75
2023-01-21T08:07:58.816Z,99427.22
2023-01-21T08:12:12.843Z,99433.97
2023-01-21T08:16:25.327Z,99453.69
2023-01-21T08:20:37.712Z,99419.16
2023-01-21T08:24:49.999Z,99409.41
2023-01-21T08:29:03.540Z,99423.53
2023-01-21T08:33:16.112Z,99413.88
2023-01-21T08:37:28.520Z,99432.78
2023-01-21T08:41:41.062Z,99422.06
2023-01-21T08:45:56.960Z,99422.88
2023-01-21T08:50:11.170Z,99417.28
2023-01-21T08:54:23.511Z,99408.84
2023-01-21T08:58:36.260Z,99409.38
2023-01-21T09:02:51.796Z,99392.66
2023-01-21T09:07:07.019Z,99400.22
2023-01-21T09:11:21.026Z,99436.59
2023-01-21T09:15:42.232Z,99437.16
2023-01-21T09:19:55.604Z,99446.66
2023-01-21T09:24:08.417Z,99458.69
2023-01-21T09:28:22.149Z,99460.19
2023-01-21T09:32:34.498Z,99463.75
2023-01-21T09:36:46.885Z,99466.41
2023-01-21T09:41:17.400Z,99479.88
2023-01-21T09:45:30.397Z,99489.16
2023-01-21T09:49:56.408Z,99481.31
2023-01-21T09:54:40.062Z,99496.66
2023-01-21T09:59:07.939Z,99484.38
2023-01-21T10:03:41.043Z,99479.28
2023-01-21T10:08:13.830Z,99478.72
2023-01-21T10:12:44.712Z,99479.69
2023-01-21T10:17:12.119Z,99488.78
2023-01-21T10:21:37.086Z,99496.84
2023-01-21T10:25:50.784Z,99497.72
2023-01-21T10:30:20.224Z,99496.38
2023-01-21T10:34:35.965Z,99487.78
2023-01-21T10:39:15.934Z,99484.31
2023-01-21T10:43:57.481Z,99470.53
2023-01-21T10:48:33.196Z,99475.22
2023-01-21T10:53:00.685Z,99466.28
2023-01-21T10:57:45.665Z,99456.91
2023-01-21T11:02:26.210Z,99457.41
2023-01-21T11:06:41.214Z,99456.94
2023-01-21T11:10:58.480Z,99447.16
2023-01-21T11:15:17.704Z,99458.53
2023-01-21T11:19:32.393Z,99454.69
2023-01-21T11:23:55.159Z,99449.94
2023-01-21T11:28:25.025Z,99451.47
2023-01-21T11:32:37.643Z,99442.09
2023-01-21T11:36:58.351Z,99450.47
2023-01-21T11:41:11.193Z,99460.31
2023-01-21T11:45:32.218Z,99476.72
2023-01-21T11:49:48.539Z,99484.78
2023-01-21T11:54:21.206Z,99485.66
2023-01-21T11:58:36.537Z,99494.81
2023-01-21T12:02:53.411Z,99500.38
2023-01-21T12:07:07.857Z,99503.69
2023-01-21T12:11:24.628Z,99504.47
2023-01-21T12:16:05.022Z,99500.28
2023-01-21T12:20:54.282Z,99509.22
2023-01-21T12:25:24.753Z,99505.94
2023-01-21T12:29:51.995Z,99514.66
2023-01-21T12:34:13.109Z,99519.22
2023-01-21T12:38:34.121Z,99515.75
2023-01-21T12:42:54.556Z,99521.75
2023-01-21T12:47:21.496Z,99509.41
2023-01-21T12:52:05.587Z,99529.91
2023-01-21T12:56:41.332Z,99558.03
2023-01-21T13:00:55.655Z,99560.13
2023-01-21T13:05:37.523Z,99544.59
2023-01-21T13:10:17.555Z,99506.88
2023-01-21T13:14:51.937Z,99513.81
2023-01-21T13:19:04.848Z,99504.56
2023-01-21T13:23:32.368Z,99513.75
2023-01-21T13:28:01.403Z,99528.91
2023-01-21T13:32:43.622Z,99545.88
2023-01-21T13:37:20.780Z,99540.69
2023-01-21T13:41:53.175Z,99557.56
2023-01-21T13:46:11.853Z,99561.31
2023-01-21T13:50:42.829Z,99571.88
2023-01-21T13:55:10.095Z,99588.53
2023-01-21T13:59:27.778Z,99597.16
2023-01-21T14:03:47.671Z,99619.41
2023-01-21T14:08:08.883Z,99631.16
2023-01-21T14:12:36.929Z,99648.84
2023-01-21T14:17:15.085Z,99671.91
2023-01-21T14:22:02.945Z,99680.69
2023-01-21T14:27:05.595Z,99706.41
2023-01-21T14:31:22.972Z,99715.31
2023-01-21T14:36:06.859Z,99729.44
2023-01-21T14:40:24.295Z,99728.56
2023-01-21T14:45:05.721Z,99711.94
2023-01-21T14:49:42.020Z,99715.41
2023-01-21T14:54:01.448Z,99699.59
2023-01-21T14:58:25.123Z,99700.41
2023-01-21T15:02:42.695Z,99690.84
2023-01-21T15:07:03.385Z,99695.22
2023-01-21T15:11:40.649Z,99687.34
2023-01-21T15:16:30.028Z,99689.09
2023-01-21T15:20:56.152Z,99678.38
2023-01-21T15:25:14.629Z,99686.44
2023-01-21T15:29:38.488Z,99697.84
2023-01-21T15:33:58.080Z,99695.19
2023-01-21T15:38:18.818Z,99685.47
2023-01-21T15:42:34.033Z,99694.28
2023-01-21T15:47:04.398Z,99697.78
2023-01-21T15:51:48.612Z,99689.91
2023-01-21T15:56:29.821Z,99687.19
2023-01-21T16:00:57.514Z,99688.09
2023-01-21T16:05:33.626Z,99693.34
2023-01-21T16:10:09.240Z,99686.25
2023-01-21T16:15:06.427Z,99699.47
2023-01-21T16:19:33.113Z,99705.66
2023-01-21T16:23:49.297Z,99702.19
2023-01-21T16:28:01.698Z,99703.97
2023-01-21T16:32:22.714Z,99711.88
2023-01-21T16:36:39.398Z,99713.63
2023-01-21T16:41:14.158Z,99726.78
2023-01-21T16:45:27.415Z,99747.88
2023-01-21T16:49:43.359Z,99756.63
2023-01-21T16:54:20.767Z,99763.59
2023-01-21T16:58:35.370Z,99775.06
2023-01-21T17:02:49.694Z,99777.53
2023-01-21T17:07:03.914Z,99774.91
2023-01-21T17:11:18.575Z,99779.28
2023-01-21T17:15:39.364Z,99793.31
2023-01-21T17:19:52.074Z,99813.47
2023-01-21T17:24:17.483Z,99840.78
2023-01-21T17:28:44.756Z,99851.50
2023-01-21T17:32:59.898Z,99844.53
2023-01-21T17:37:44.869Z,99854.19
2023-01-21T17:42:03.872Z,99848.94
2023-01-21T17:46:22.807Z,99851.56
2023-01-21T17:50:35.152Z,99855.97
2023-01-21T17:54:49.284Z,99863.81
2023-01-21T17:59:04.638Z,99877.88
2023-01-21T18:03:19.118Z,99849.72
2023-01-21T18:07:32.607Z,99866.38
2023-01-21T18:11:45.694Z,99868.94
2023-01-21T18:15:58.467Z,99860.09
2023-01-21T18:20:24.131Z,99875.03
2023-01-21T18:24:37.606Z,99851.22
2023-01-21T18:28:50.924Z,99856.47
2023-01-21T18:33:07.834Z,99856.56
2023-01-21T18:37:21.117Z,99867.13
2023-01-21T18:41:33.689Z,99875.06
2023-01-21T18:45:46.330Z,99864.56
2023-01-21T18:50:03.165Z,99868.03
2023-01-21T18:54:19.114Z,99877.69
2023-01-21T18:58:31.430Z,99891.81
2023-01-21T19:02:44.752Z,99887.38
2023-01-21T19:06:57.559Z,99896.22
2023-01-21T19:11:14.321Z,99891.78
2023-01-21T19:15:29.291Z,99909.41
2023-01-21T19:19:44.922Z,99929.63
2023-01-21T19:23:57.398Z,99931.38
2023-01-21T19:28:12.808Z,99941.91
2023-01-21T19:32:25.386Z,99945.44
2023-01-21T19:36:39.415Z,99958.63
2023-01-21T19:40:51.741Z,99945.38
2023-01-21T19:45:04.390Z,99967.38
2023-01-21T19:49:20.350Z,99965.56
2023-01-21T19:53:32.880Z,99964.69
2023-01-21T19:57:46.675Z,99971.78
2023-01-21T20:01:59.257Z,99977.03
2023-01-21T20:06:11.761Z,99983.19
2023-01-21T20:10:27.445Z,99982.31
2023-01-21T20:14:39.882Z,99982.34
2023-01-21T20:18:52.258Z,99985.84
2023-01-21T20:23:06.869Z,99989.38
2023-01-21T20:27:19.456Z,100002.63
2023-01-21T20:31:32.003Z,100006.13
2023-01-21T20:35:53.708Z,100016.72
2023-01-21T20:40:06.476Z,100018.47
2023-01-21T20:44:18.978Z,100040.47
2023-01-21T20:48:36.350Z,100053.63
2023-01-21T20:52:50.071Z,100062.38
2023-01-21T20:57:04.154Z,100052.66
2023-01-21T21:01:18.727Z,100057.97
2023-01-21T21:05:31.610Z,100050.94
2023-01-21T21:09:48.793Z,100057.09
2023-01-21T21:14:05.218Z,100055.34
2023-01-21T21:18:20.910Z,100067.66
2023-01-21T21:22:33.260Z,100064.13
2023-01-21T21:26:46.218Z,100069.38
2023-01-21T21:31:01.553Z,100063.25
2023-01-21T21:35:35.930Z,100079.94
2023-01-21T21:39:48.344Z,100100.22
2023-01-21T21:44:01.027Z,100101.97
2023-01-21T21:48:39.886Z,100101.97
2023-01-21T21:52:52.296Z,100098.44
2023-01-21T21:57:04.828Z,100090.44
2023-01-21T22:01:18.592Z,100113.38
2023-01-21T22:05:35.685Z,100103.66
2023-01-21T22:09:48.372Z,100125.72
2023-01-21T22:14:04.411Z,100125.69
2023-01-21T22:18:16.963Z,100142.47
2023-01-21T22:22:29.959Z,100137.16
2023-01-21T22:26:42.240Z,100145.97
2023-01-21T22:30:54.733Z,100152.16
2023-01-21T22:35:07.611Z,100164.47
2023-01-21T22:39:20.294Z,100171.53
2023-01-21T22:43:34.143Z,100174.19
2023-01-21T22:47:46.473Z,100175.91
2023-01-21T22:51:58.921Z,100194.41
2023-01-21T22:56:13.779Z,100216.41
2023-01-21T23:00:38.478Z,100212.91
2023-01-21T23:04:50.888Z,100197.06
2023-01-21T23:09:03.927Z,100197.97
2023-01-21T23:13:17.281Z,100221.69
2023-01-21T23:17:29.725Z,100241.97
2023-01-21T23:21:42.998Z,100245.47
2023-01-21T23:25:56.847Z,100231.38
2023-01-21T23:30:10.156Z,100219.97
2023-01-21T23:34:23.970Z,100233.16
2023-01-21T23:38:36.368Z,100229.63
2023-01-21T23:42:49.272Z,100231.41
2023-01-21T23:47:01.662Z,100236.72
2023-01-21T23:51:15.457Z,100240.22
2023-01-21T23:55:27.810Z,100245.50
2023-01-21T23:59:40.399Z,100240.19
